Taylor Fork

This weather station provides wind speed, gust or max wind speed, and wind direction at 9460 ft. near Pika Point above Sunlight Basin.  

This data can be used with temperature and precipitation data from the Carrot Basin SNOTEL site. If the data below is not displayed or up to date, view data here.

Elevation
9460ft
Jump to table bottom
Date Time Temperature
deg F
RH, % Wind Speed Wind Gust Wind Direction
02/06/23 09:00 13.3 94 22 39 N - 344
02/06/23 08:00 13.3 94 18 33 N - 348
02/06/23 07:00 13.8 94 19 31 N - 347
02/06/23 06:00 14.0 94 11 27 N - 347
02/06/23 05:00 13.8 94 10 23 N - 344
02/06/23 04:00 14.6 94 12 25 N - 341
02/06/23 03:00 14.0 94 7 17 NW - 326
02/06/23 02:00 14.3 94 17 27 NW - 303
02/06/23 01:00 14.1 94 18 27 NW - 302
02/06/23 00:00 14.5 94 20 28 NW - 302
02/05/23 23:00 14.9 94 13 31 W - 289
02/05/23 22:00 14.8 94 10 16 W - 279
02/05/23 21:00 15.0 94 10 18 W - 251
02/05/23 20:00 14.8 94 11 18 SW - 223
02/05/23 19:00 15.0 94 11 16 SW - 208
02/05/23 18:00 15.3 94 11 15 S - 192
02/05/23 17:00 15.7 94 10 17 SW - 209
02/05/23 16:00 16.5 94 15 22 S - 198
02/05/23 15:00 16.7 94 17 27 SW - 213
02/05/23 14:00 16.9 94 18 28 SW - 219
02/05/23 13:00 17.2 94 21 31 SW - 205
02/05/23 12:00 16.6 94 20 32 SW - 218
02/05/23 11:00 17.9 94 20 35 SW - 213
02/05/23 10:00 18.8 79 21 41 SW - 215
02/05/23 09:00 17.5 91 22 36 SW - 205
02/05/23 08:00 15.6 94 20 27 S - 188
02/05/23 07:00 15.4 94 19 25 S - 188
02/05/23 06:00 15.2 94 17 22 S - 191
02/05/23 05:00 15.4 94 17 22 S - 191
02/05/23 04:00 14.9 94 17 21 S - 183
02/05/23 03:00 14.7 94 17 23 S - 183
02/05/23 02:00 14.5 94 17 24 S - 183
02/05/23 01:00 15.0 94 15 23 S - 161
02/05/23 00:00 14.8 94 16 21 S - 181
02/04/23 23:00 14.4 94 17 22 S - 188
02/04/23 22:00 15.2 94 17 25 SW - 204
02/04/23 21:00 15.2 94 17 25 SW - 208
02/04/23 20:00 15.3 94 16 23 SW - 211
02/04/23 19:00 15.2 94 16 26 SW - 209
02/04/23 18:00 15.2 94 17 27 SW - 211
02/04/23 17:00 15.7 91 16 24 SW - 218
02/04/23 16:00 16.7 87 13 20 SW - 208
02/04/23 15:00 15.9 89 14 21 SW - 216
02/04/23 14:00 17.4 85 14 24 SW - 239
02/04/23 13:00 18.8 82 11 20 SW - 241
02/04/23 12:00 17.0 87 9 20 SW - 211
02/04/23 11:00 17.4 82 14 21 W - 256
02/04/23 10:00 15.9 91 13 22 W - 264
02/04/23 09:00 15.6 91 13 25 W - 261
02/04/23 08:00 17.2 79 13 29 W - 257